sensor_id;sensor_type;location;lat;lon;timestamp;P1;durP1;ratioP1;P2;durP2;ratioP2
39996;SDS011;25688;52.338;21.072;2024-03-06T00:02:09;296.10;;;96.22;;
39996;SDS011;25688;52.338;21.072;2024-03-06T00:04:35;278.70;;;94.63;;
39996;SDS011;25688;52.338;21.072;2024-03-06T00:07:02;258.80;;;89.30;;
39996;SDS011;25688;52.338;21.072;2024-03-06T00:09:27;257.92;;;92.05;;
39996;SDS011;25688;52.338;21.072;2024-03-06T00:11:54;252.40;;;90.18;;
39996;SDS011;25688;52.338;21.072;2024-03-06T00:14:32;248.75;;;93.13;;
39996;SDS011;25688;52.338;21.072;2024-03-06T00:16:58;241.63;;;91.28;;
39996;SDS011;25688;52.338;21.072;2024-03-06T00:19:33;229.95;;;89.75;;
39996;SDS011;25688;52.338;21.072;2024-03-06T00:21:59;242.85;;;87.75;;
39996;SDS011;25688;52.338;21.072;2024-03-06T00:24:26;237.90;;;88.07;;
39996;SDS011;25688;52.338;21.072;2024-03-06T00:26:52;225.63;;;87.25;;
39996;SDS011;25688;52.338;21.072;2024-03-06T00:29:18;227.70;;;84.63;;
39996;SDS011;25688;52.338;21.072;2024-03-06T00:31:45;227.25;;;87.90;;
39996;SDS011;25688;52.338;21.072;2024-03-06T00:34:13;228.90;;;84.60;;
39996;SDS011;25688;52.338;21.072;2024-03-06T00:36:40;232.73;;;85.60;;
39996;SDS011;25688;52.338;21.072;2024-03-06T00:39:06;212.13;;;84.57;;
39996;SDS011;25688;52.338;21.072;2024-03-06T00:41:34;230.73;;;87.97;;
39996;SDS011;25688;52.338;21.072;2024-03-06T00:44:00;207.55;;;81.95;;
39996;SDS011;25688;52.338;21.072;2024-03-06T00:46:26;212.55;;;82.07;;
39996;SDS011;25688;52.338;21.072;2024-03-06T00:48:53;206.38;;;80.60;;
39996;SDS011;25688;52.338;21.072;2024-03-06T00:51:18;224.23;;;84.03;;
39996;SDS011;25688;52.338;21.072;2024-03-06T00:53:44;219.60;;;81.28;;
39996;SDS011;25688;52.338;21.072;2024-03-06T00:56:10;205.98;;;79.15;;
39996;SDS011;25688;52.338;21.072;2024-03-06T00:58:42;195.57;;;76.97;;
39996;SDS011;25688;52.338;21.072;2024-03-06T01:01:08;188.15;;;72.47;;
39996;SDS011;25688;52.338;21.072;2024-03-06T01:03:37;189.95;;;75.30;;
39996;SDS011;25688;52.338;21.072;2024-03-06T01:06:04;180.63;;;72.72;;
39996;SDS011;25688;52.338;21.072;2024-03-06T01:08:29;175.70;;;70.38;;
39996;SDS011;25688;52.338;21.072;2024-03-06T01:10:56;178.60;;;70.65;;
39996;SDS011;25688;52.338;21.072;2024-03-06T01:13:22;164.32;;;68.03;;
39996;SDS011;25688;52.338;21.072;2024-03-06T01:15:49;168.63;;;70.60;;
39996;SDS011;25688;52.338;21.072;2024-03-06T01:18:14;161.32;;;65.13;;
39996;SDS011;25688;52.338;21.072;2024-03-06T01:20:40;146.55;;;62.65;;
39996;SDS011;25688;52.338;21.072;2024-03-06T01:23:06;141.55;;;61.58;;
39996;SDS011;25688;52.338;21.072;2024-03-06T01:25:32;144.82;;;62.83;;
39996;SDS011;25688;52.338;21.072;2024-03-06T01:27:58;143.20;;;60.75;;
39996;SDS011;25688;52.338;21.072;2024-03-06T01:30:23;139.77;;;58.85;;
39996;SDS011;25688;52.338;21.072;2024-03-06T01:32:49;132.60;;;60.20;;
39996;SDS011;25688;52.338;21.072;2024-03-06T01:35:18;137.30;;;58.35;;
39996;SDS011;25688;52.338;21.072;2024-03-06T01:37:44;134.25;;;55.72;;
39996;SDS011;25688;52.338;21.072;2024-03-06T01:40:10;128.60;;;54.00;;
39996;SDS011;25688;52.338;21.072;2024-03-06T01:42:37;128.50;;;56.00;;
39996;SDS011;25688;52.338;21.072;2024-03-06T01:45:03;131.75;;;56.15;;
39996;SDS011;25688;52.338;21.072;2024-03-06T01:47:30;126.55;;;55.65;;
39996;SDS011;25688;52.338;21.072;2024-03-06T01:49:55;120.18;;;52.83;;
39996;SDS011;25688;52.338;21.072;2024-03-06T01:52:21;111.68;;;55.05;;
39996;SDS011;25688;52.338;21.072;2024-03-06T01:54:48;127.95;;;53.38;;
39996;SDS011;25688;52.338;21.072;2024-03-06T01:57:15;119.45;;;54.72;;
39996;SDS011;25688;52.338;21.072;2024-03-06T01:59:42;119.43;;;51.83;;
39996;SDS011;25688;52.338;21.072;2024-03-06T02:02:08;115.68;;;52.28;;
39996;SDS011;25688;52.338;21.072;2024-03-06T02:04:36;113.20;;;50.22;;
39996;SDS011;25688;52.338;21.072;2024-03-06T02:07:08;110.38;;;50.50;;
39996;SDS011;25688;52.338;21.072;2024-03-06T02:09:38;110.72;;;51.15;;
39996;SDS011;25688;52.338;21.072;2024-03-06T02:12:05;116.80;;;49.92;;
39996;SDS011;25688;52.338;21.072;2024-03-06T02:14:33;107.97;;;47.60;;
39996;SDS011;25688;52.338;21.072;2024-03-06T02:17:00;104.72;;;48.65;;
39996;SDS011;25688;52.338;21.072;2024-03-06T02:19:42;107.30;;;49.95;;
39996;SDS011;25688;52.338;21.072;2024-03-06T02:22:15;106.97;;;48.53;;
39996;SDS011;25688;52.338;21.072;2024-03-06T02:24:44;113.75;;;49.67;;
39996;SDS011;25688;52.338;21.072;2024-03-06T02:27:20;97.30;;;46.10;;
39996;SDS011;25688;52.338;21.072;2024-03-06T02:29:46;98.15;;;47.28;;
39996;SDS011;25688;52.338;21.072;2024-03-06T02:32:14;99.78;;;46.65;;
39996;SDS011;25688;52.338;21.072;2024-03-06T02:34:42;103.18;;;44.78;;
39996;SDS011;25688;52.338;21.072;2024-03-06T02:37:08;104.90;;;48.60;;
39996;SDS011;25688;52.338;21.072;2024-03-06T02:45:47;102.60;;;45.28;;
39996;SDS011;25688;52.338;21.072;2024-03-06T02:48:12;104.25;;;46.42;;
39996;SDS011;25688;52.338;21.072;2024-03-06T02:50:38;97.47;;;46.13;;
39996;SDS011;25688;52.338;21.072;2024-03-06T02:53:04;94.57;;;44.88;;
39996;SDS011;25688;52.338;21.072;2024-03-06T02:55:30;93.43;;;44.45;;
39996;SDS011;25688;52.338;21.072;2024-03-06T02:57:55;92.47;;;44.30;;
39996;SDS011;25688;52.338;21.072;2024-03-06T03:00:21;91.97;;;41.40;;
39996;SDS011;25688;52.338;21.072;2024-03-06T03:02:47;92.57;;;44.75;;
39996;SDS011;25688;52.338;21.072;2024-03-06T03:05:13;95.10;;;43.17;;
39996;SDS011;25688;52.338;21.072;2024-03-06T03:07:39;90.55;;;43.00;;
39996;SDS011;25688;52.338;21.072;2024-03-06T03:10:05;85.78;;;42.40;;
39996;SDS011;25688;52.338;21.072;2024-03-06T03:12:31;91.05;;;42.72;;
39996;SDS011;25688;52.338;21.072;2024-03-06T03:14:57;88.75;;;42.50;;
39996;SDS011;25688;52.338;21.072;2024-03-06T03:17:23;92.82;;;42.25;;
39996;SDS011;25688;52.338;21.072;2024-03-06T03:19:48;86.18;;;42.70;;
39996;SDS011;25688;52.338;21.072;2024-03-06T03:22:14;87.07;;;41.35;;
39996;SDS011;25688;52.338;21.072;2024-03-06T03:24:43;84.68;;;41.53;;
39996;SDS011;25688;52.338;21.072;2024-03-06T03:27:09;93.53;;;40.63;;
39996;SDS011;25688;52.338;21.072;2024-03-06T03:29:34;92.90;;;42.17;;
39996;SDS011;25688;52.338;21.072;2024-03-06T03:32:00;89.40;;;42.55;;
39996;SDS011;25688;52.338;21.072;2024-03-06T03:34:26;87.20;;;41.15;;
39996;SDS011;25688;52.338;21.072;2024-03-06T03:36:52;87.30;;;41.35;;
39996;SDS011;25688;52.338;21.072;2024-03-06T03:39:18;91.32;;;41.95;;
39996;SDS011;25688;52.338;21.072;2024-03-06T03:41:46;79.65;;;38.30;;
39996;SDS011;25688;52.338;21.072;2024-03-06T03:44:13;87.97;;;42.30;;
39996;SDS011;25688;52.338;21.072;2024-03-06T03:46:40;84.00;;;40.28;;
39996;SDS011;25688;52.338;21.072;2024-03-06T03:49:06;85.50;;;39.38;;
39996;SDS011;25688;52.338;21.072;2024-03-06T03:51:33;78.47;;;38.38;;
39996;SDS011;25688;52.338;21.072;2024-03-06T03:54:00;84.05;;;39.63;;
39996;SDS011;25688;52.338;21.072;2024-03-06T03:56:26;78.18;;;39.30;;
39996;SDS011;25688;52.338;21.072;2024-03-06T03:58:52;81.45;;;37.63;;
39996;SDS011;25688;52.338;21.072;2024-03-06T04:01:18;82.72;;;38.25;;
39996;SDS011;25688;52.338;21.072;2024-03-06T04:03:44;71.40;;;34.92;;
39996;SDS011;25688;52.338;21.072;2024-03-06T04:06:10;78.95;;;37.97;;
39996;SDS011;25688;52.338;21.072;2024-03-06T04:08:36;81.20;;;38.20;;
39996;SDS011;25688;52.338;21.072;2024-03-06T04:11:04;81.28;;;37.85;;
39996;SDS011;25688;52.338;21.072;2024-03-06T04:13:30;81.68;;;37.90;;
39996;SDS011;25688;52.338;21.072;2024-03-06T04:16:01;73.55;;;36.13;;
39996;SDS011;25688;52.338;21.072;2024-03-06T04:18:28;83.22;;;37.42;;
39996;SDS011;25688;52.338;21.072;2024-03-06T04:20:54;79.50;;;36.13;;
39996;SDS011;25688;52.338;21.072;2024-03-06T04:23:20;69.97;;;34.75;;
39996;SDS011;25688;52.338;21.072;2024-03-06T04:25:46;78.25;;;36.30;;
39996;SDS011;25688;52.338;21.072;2024-03-06T04:28:11;71.82;;;34.97;;
39996;SDS011;25688;52.338;21.072;2024-03-06T04:30:39;69.90;;;35.15;;
39996;SDS011;25688;52.338;21.072;2024-03-06T04:33:05;67.25;;;33.58;;
39996;SDS011;25688;52.338;21.072;2024-03-06T04:35:30;72.93;;;35.22;;
39996;SDS011;25688;52.338;21.072;2024-03-06T04:37:56;67.00;;;34.50;;
39996;SDS011;25688;52.338;21.072;2024-03-06T04:40:22;63.88;;;32.13;;
39996;SDS011;25688;52.338;21.072;2024-03-06T04:42:50;69.63;;;32.40;;
39996;SDS011;25688;52.338;21.072;2024-03-06T04:45:16;66.97;;;33.72;;
39996;SDS011;25688;52.338;21.072;2024-03-06T04:47:42;70.38;;;34.83;;
39996;SDS011;25688;52.338;21.072;2024-03-06T04:50:11;65.18;;;33.83;;
39996;SDS011;25688;52.338;21.072;2024-03-06T04:52:39;65.18;;;33.33;;
39996;SDS011;25688;52.338;21.072;2024-03-06T04:55:06;73.97;;;34.85;;
39996;SDS011;25688;52.338;21.072;2024-03-06T04:57:34;69.50;;;34.70;;
39996;SDS011;25688;52.338;21.072;2024-03-06T05:00:00;62.70;;;31.77;;
39996;SDS011;25688;52.338;21.072;2024-03-06T05:02:29;62.15;;;31.98;;
39996;SDS011;25688;52.338;21.072;2024-03-06T05:04:55;67.35;;;32.47;;
39996;SDS011;25688;52.338;21.072;2024-03-06T05:07:21;70.40;;;34.00;;
39996;SDS011;25688;52.338;21.072;2024-03-06T05:09:47;65.30;;;32.00;;
39996;SDS011;25688;52.338;21.072;2024-03-06T05:12:12;68.28;;;32.53;;
39996;SDS011;25688;52.338;21.072;2024-03-06T05:14:38;61.53;;;31.35;;
39996;SDS011;25688;52.338;21.072;2024-03-06T05:17:04;66.18;;;32.60;;
39996;SDS011;25688;52.338;21.072;2024-03-06T05:19:30;63.17;;;32.88;;
39996;SDS011;25688;52.338;21.072;2024-03-06T05:21:59;64.65;;;32.50;;
39996;SDS011;25688;52.338;21.072;2024-03-06T05:24:25;64.22;;;32.83;;
39996;SDS011;25688;52.338;21.072;2024-03-06T05:26:51;63.00;;;31.17;;
39996;SDS011;25688;52.338;21.072;2024-03-06T05:29:17;67.93;;;32.50;;
39996;SDS011;25688;52.338;21.072;2024-03-06T05:31:43;66.57;;;31.83;;
39996;SDS011;25688;52.338;21.072;2024-03-06T05:34:08;57.72;;;30.50;;
39996;SDS011;25688;52.338;21.072;2024-03-06T05:36:34;57.92;;;30.60;;
39996;SDS011;25688;52.338;21.072;2024-03-06T05:39:00;63.13;;;31.00;;
39996;SDS011;25688;52.338;21.072;2024-03-06T05:41:27;73.15;;;35.75;;
39996;SDS011;25688;52.338;21.072;2024-03-06T05:43:53;62.25;;;31.77;;
39996;SDS011;25688;52.338;21.072;2024-03-06T05:46:19;54.47;;;27.38;;
39996;SDS011;25688;52.338;21.072;2024-03-06T05:48:44;54.28;;;28.20;;
39996;SDS011;25688;52.338;21.072;2024-03-06T05:51:10;53.50;;;27.00;;
39996;SDS011;25688;52.338;21.072;2024-03-06T05:53:38;51.78;;;27.85;;
39996;SDS011;25688;52.338;21.072;2024-03-06T05:56:07;54.40;;;27.27;;
39996;SDS011;25688;52.338;21.072;2024-03-06T05:58:33;53.17;;;26.13;;
39996;SDS011;25688;52.338;21.072;2024-03-06T06:01:00;53.00;;;27.15;;
39996;SDS011;25688;52.338;21.072;2024-03-06T06:03:27;49.83;;;26.27;;
39996;SDS011;25688;52.338;21.072;2024-03-06T06:05:53;48.60;;;24.40;;
39996;SDS011;25688;52.338;21.072;2024-03-06T06:08:19;44.15;;;23.88;;
39996;SDS011;25688;52.338;21.072;2024-03-06T06:10:48;43.47;;;23.85;;
39996;SDS011;25688;52.338;21.072;2024-03-06T06:13:16;47.42;;;25.30;;
39996;SDS011;25688;52.338;21.072;2024-03-06T06:15:43;44.75;;;25.45;;
39996;SDS011;25688;52.338;21.072;2024-03-06T06:18:09;47.83;;;23.08;;
39996;SDS011;25688;52.338;21.072;2024-03-06T06:20:35;42.90;;;23.73;;
39996;SDS011;25688;52.338;21.072;2024-03-06T06:23:01;46.05;;;22.65;;
39996;SDS011;25688;52.338;21.072;2024-03-06T06:25:33;41.28;;;20.88;;
39996;SDS011;25688;52.338;21.072;2024-03-06T06:27:58;47.47;;;21.50;;
39996;SDS011;25688;52.338;21.072;2024-03-06T06:30:24;46.05;;;19.95;;
39996;SDS011;25688;52.338;21.072;2024-03-06T06:32:50;44.10;;;20.52;;
39996;SDS011;25688;52.338;21.072;2024-03-06T06:35:15;35.88;;;20.17;;
39996;SDS011;25688;52.338;21.072;2024-03-06T06:37:41;34.53;;;19.83;;
39996;SDS011;25688;52.338;21.072;2024-03-06T06:40:07;34.63;;;18.38;;
39996;SDS011;25688;52.338;21.072;2024-03-06T06:42:34;37.45;;;18.88;;
39996;SDS011;25688;52.338;21.072;2024-03-06T06:45:04;40.40;;;17.80;;
39996;SDS011;25688;52.338;21.072;2024-03-06T06:47:31;32.92;;;18.13;;
39996;SDS011;25688;52.338;21.072;2024-03-06T06:50:00;33.78;;;18.33;;
39996;SDS011;25688;52.338;21.072;2024-03-06T06:52:30;34.40;;;18.75;;
39996;SDS011;25688;52.338;21.072;2024-03-06T06:54:58;31.08;;;17.40;;
39996;SDS011;25688;52.338;21.072;2024-03-06T06:57:24;36.92;;;19.20;;
39996;SDS011;25688;52.338;21.072;2024-03-06T06:59:50;35.17;;;17.92;;
39996;SDS011;25688;52.338;21.072;2024-03-06T07:02:16;31.13;;;18.10;;
39996;SDS011;25688;52.338;21.072;2024-03-06T07:04:42;32.65;;;18.27;;
39996;SDS011;25688;52.338;21.072;2024-03-06T07:07:09;38.13;;;18.88;;
39996;SDS011;25688;52.338;21.072;2024-03-06T07:09:35;34.55;;;19.75;;
39996;SDS011;25688;52.338;21.072;2024-03-06T07:12:01;37.20;;;18.35;;
39996;SDS011;25688;52.338;21.072;2024-03-06T07:17:06;37.88;;;19.92;;
39996;SDS011;25688;52.338;21.072;2024-03-06T07:19:32;35.47;;;18.75;;
39996;SDS011;25688;52.338;21.072;2024-03-06T07:22:04;37.33;;;18.80;;
39996;SDS011;25688;52.338;21.072;2024-03-06T07:26:55;37.95;;;17.83;;
39996;SDS011;25688;52.338;21.072;2024-03-06T07:29:20;35.83;;;19.13;;
39996;SDS011;25688;52.338;21.072;2024-03-06T07:31:46;38.25;;;19.52;;
39996;SDS011;25688;52.338;21.072;2024-03-06T07:34:13;40.00;;;17.88;;
39996;SDS011;25688;52.338;21.072;2024-03-06T07:36:40;34.97;;;18.13;;
39996;SDS011;25688;52.338;21.072;2024-03-06T07:39:07;39.30;;;20.58;;
39996;SDS011;25688;52.338;21.072;2024-03-06T07:41:32;35.95;;;18.77;;
39996;SDS011;25688;52.338;21.072;2024-03-06T07:43:58;32.13;;;17.17;;
39996;SDS011;25688;52.338;21.072;2024-03-06T07:46:27;37.55;;;18.67;;
39996;SDS011;25688;52.338;21.072;2024-03-06T07:48:53;38.80;;;19.75;;
39996;SDS011;25688;52.338;21.072;2024-03-06T07:51:20;41.22;;;18.48;;
39996;SDS011;25688;52.338;21.072;2024-03-06T07:53:46;46.53;;;20.85;;
39996;SDS011;25688;52.338;21.072;2024-03-06T07:56:12;41.80;;;21.13;;
39996;SDS011;25688;52.338;21.072;2024-03-06T07:58:38;38.80;;;18.95;;
39996;SDS011;25688;52.338;21.072;2024-03-06T08:01:04;40.00;;;19.17;;
39996;SDS011;25688;52.338;21.072;2024-03-06T08:03:32;34.15;;;18.60;;
39996;SDS011;25688;52.338;21.072;2024-03-06T08:06:02;37.00;;;19.17;;
39996;SDS011;25688;52.338;21.072;2024-03-06T08:08:43;36.65;;;19.20;;
39996;SDS011;25688;52.338;21.072;2024-03-06T08:11:12;38.20;;;20.25;;
39996;SDS011;25688;52.338;21.072;2024-03-06T08:13:38;38.45;;;19.65;;
39996;SDS011;25688;52.338;21.072;2024-03-06T08:16:05;34.22;;;18.02;;
39996;SDS011;25688;52.338;21.072;2024-03-06T08:18:31;48.40;;;22.85;;
39996;SDS011;25688;52.338;21.072;2024-03-06T08:20:58;38.50;;;20.83;;
39996;SDS011;25688;52.338;21.072;2024-03-06T08:23:24;33.95;;;19.58;;
39996;SDS011;25688;52.338;21.072;2024-03-06T08:25:50;35.78;;;18.95;;
39996;SDS011;25688;52.338;21.072;2024-03-06T08:28:25;37.13;;;19.08;;
39996;SDS011;25688;52.338;21.072;2024-03-06T08:30:51;34.90;;;19.40;;
39996;SDS011;25688;52.338;21.072;2024-03-06T08:33:18;36.10;;;19.98;;
39996;SDS011;25688;52.338;21.072;2024-03-06T08:35:46;42.67;;;21.60;;
39996;SDS011;25688;52.338;21.072;2024-03-06T08:38:14;40.03;;;20.63;;
39996;SDS011;25688;52.338;21.072;2024-03-06T08:40:42;46.05;;;21.58;;
39996;SDS011;25688;52.338;21.072;2024-03-06T08:43:11;35.95;;;19.58;;
39996;SDS011;25688;52.338;21.072;2024-03-06T08:45:38;35.95;;;20.67;;
39996;SDS011;25688;52.338;21.072;2024-03-06T08:48:04;36.20;;;17.85;;
39996;SDS011;25688;52.338;21.072;2024-03-06T08:50:30;36.50;;;18.73;;
39996;SDS011;25688;52.338;21.072;2024-03-06T08:52:56;36.17;;;19.15;;
39996;SDS011;25688;52.338;21.072;2024-03-06T08:55:22;30.50;;;17.20;;
39996;SDS011;25688;52.338;21.072;2024-03-06T08:57:48;37.95;;;19.67;;
39996;SDS011;25688;52.338;21.072;2024-03-06T09:00:31;35.10;;;19.17;;
39996;SDS011;25688;52.338;21.072;2024-03-06T09:03:07;36.70;;;18.75;;
39996;SDS011;25688;52.338;21.072;2024-03-06T09:08:46;31.73;;;16.50;;
39996;SDS011;25688;52.338;21.072;2024-03-06T09:11:13;34.28;;;16.38;;
39996;SDS011;25688;52.338;21.072;2024-03-06T09:13:39;32.80;;;16.85;;
39996;SDS011;25688;52.338;21.072;2024-03-06T09:16:11;32.72;;;15.88;;
39996;SDS011;25688;52.338;21.072;2024-03-06T09:18:36;33.05;;;17.85;;
39996;SDS011;25688;52.338;21.072;2024-03-06T09:21:03;30.55;;;17.08;;
39996;SDS011;25688;52.338;21.072;2024-03-06T09:23:31;28.42;;;16.90;;
39996;SDS011;25688;52.338;21.072;2024-03-06T09:25:57;26.95;;;16.50;;
39996;SDS011;25688;52.338;21.072;2024-03-06T09:28:23;27.17;;;16.38;;
39996;SDS011;25688;52.338;21.072;2024-03-06T09:37:49;30.23;;;15.50;;
39996;SDS011;25688;52.338;21.072;2024-03-06T09:40:22;33.83;;;16.00;;
39996;SDS011;25688;52.338;21.072;2024-03-06T09:42:57;30.55;;;15.90;;
39996;SDS011;25688;52.338;21.072;2024-03-06T09:59:23;29.42;;;15.35;;
39996;SDS011;25688;52.338;21.072;2024-03-06T10:07:31;31.30;;;15.80;;
39996;SDS011;25688;52.338;21.072;2024-03-06T10:10:00;33.35;;;16.30;;
39996;SDS011;25688;52.338;21.072;2024-03-06T10:14:55;28.02;;;14.30;;
39996;SDS011;25688;52.338;21.072;2024-03-06T10:17:40;27.27;;;14.27;;
39996;SDS011;25688;52.338;21.072;2024-03-06T10:22:52;23.13;;;12.38;;
39996;SDS011;25688;52.338;21.072;2024-03-06T10:25:22;26.90;;;14.43;;
39996;SDS011;25688;52.338;21.072;2024-03-06T10:28:04;22.80;;;12.88;;
39996;SDS011;25688;52.338;21.072;2024-03-06T10:30:34;25.70;;;13.43;;
39996;SDS011;25688;52.338;21.072;2024-03-06T10:33:04;21.20;;;11.43;;
39996;SDS011;25688;52.338;21.072;2024-03-06T10:35:57;20.92;;;12.35;;
39996;SDS011;25688;52.338;21.072;2024-03-06T10:38:29;23.80;;;12.40;;
39996;SDS011;25688;52.338;21.072;2024-03-06T10:41:08;22.17;;;10.75;;
39996;SDS011;25688;52.338;21.072;2024-03-06T10:43:38;21.05;;;12.27;;
39996;SDS011;25688;52.338;21.072;2024-03-06T10:46:06;22.17;;;11.40;;
39996;SDS011;25688;52.338;21.072;2024-03-06T10:48:43;22.00;;;11.35;;
39996;SDS011;25688;52.338;21.072;2024-03-06T10:51:17;21.25;;;11.32;;
39996;SDS011;25688;52.338;21.072;2024-03-06T10:53:46;21.63;;;10.15;;
39996;SDS011;25688;52.338;21.072;2024-03-06T10:56:13;19.65;;;9.77;;
39996;SDS011;25688;52.338;21.072;2024-03-06T10:58:41;19.88;;;10.40;;
39996;SDS011;25688;52.338;21.072;2024-03-06T11:01:08;17.48;;;8.77;;
39996;SDS011;25688;52.338;21.072;2024-03-06T11:03:35;18.23;;;10.30;;
39996;SDS011;25688;52.338;21.072;2024-03-06T11:06:33;17.42;;;9.18;;
39996;SDS011;25688;52.338;21.072;2024-03-06T11:12:42;17.83;;;8.70;;
39996;SDS011;25688;52.338;21.072;2024-03-06T11:15:14;35.05;;;13.20;;
39996;SDS011;25688;52.338;21.072;2024-03-06T11:17:44;20.45;;;10.13;;
39996;SDS011;25688;52.338;21.072;2024-03-06T11:20:13;14.60;;;8.52;;
39996;SDS011;25688;52.338;21.072;2024-03-06T11:23:08;17.90;;;8.73;;
39996;SDS011;25688;52.338;21.072;2024-03-06T11:28:19;16.65;;;8.88;;
39996;SDS011;25688;52.338;21.072;2024-03-06T11:31:23;14.70;;;9.02;;
39996;SDS011;25688;52.338;21.072;2024-03-06T11:33:53;16.73;;;8.40;;
39996;SDS011;25688;52.338;21.072;2024-03-06T11:39:03;13.85;;;7.72;;
39996;SDS011;25688;52.338;21.072;2024-03-06T11:41:49;18.93;;;8.47;;
39996;SDS011;25688;52.338;21.072;2024-03-06T11:44:16;15.60;;;8.20;;
39996;SDS011;25688;52.338;21.072;2024-03-06T11:46:46;11.85;;;6.72;;
39996;SDS011;25688;52.338;21.072;2024-03-06T11:49:22;12.70;;;7.35;;
39996;SDS011;25688;52.338;21.072;2024-03-06T11:51:50;15.88;;;7.22;;
39996;SDS011;25688;52.338;21.072;2024-03-06T11:54:17;12.40;;;7.20;;
39996;SDS011;25688;52.338;21.072;2024-03-06T11:56:48;15.23;;;8.02;;
39996;SDS011;25688;52.338;21.072;2024-03-06T11:59:32;14.63;;;7.70;;
39996;SDS011;25688;52.338;21.072;2024-03-06T12:02:04;11.70;;;6.93;;
39996;SDS011;25688;52.338;21.072;2024-03-06T12:04:36;14.55;;;7.65;;
39996;SDS011;25688;52.338;21.072;2024-03-06T12:10:22;16.10;;;8.30;;
39996;SDS011;25688;52.338;21.072;2024-03-06T12:12:59;13.45;;;8.00;;
39996;SDS011;25688;52.338;21.072;2024-03-06T12:15:34;13.43;;;7.32;;
39996;SDS011;25688;52.338;21.072;2024-03-06T12:18:00;12.73;;;7.45;;
39996;SDS011;25688;52.338;21.072;2024-03-06T12:20:26;11.10;;;6.07;;
39996;SDS011;25688;52.338;21.072;2024-03-06T12:22:53;13.82;;;7.68;;
39996;SDS011;25688;52.338;21.072;2024-03-06T12:25:42;14.10;;;6.82;;
39996;SDS011;25688;52.338;21.072;2024-03-06T12:28:07;12.55;;;7.70;;
39996;SDS011;25688;52.338;21.072;2024-03-06T12:30:40;13.55;;;7.45;;
39996;SDS011;25688;52.338;21.072;2024-03-06T12:33:17;28.83;;;11.97;;
39996;SDS011;25688;52.338;21.072;2024-03-06T12:35:43;13.43;;;7.40;;
39996;SDS011;25688;52.338;21.072;2024-03-06T12:38:12;15.02;;;7.97;;
39996;SDS011;25688;52.338;21.072;2024-03-06T12:40:39;16.05;;;8.48;;
39996;SDS011;25688;52.338;21.072;2024-03-06T12:43:05;14.38;;;7.60;;
39996;SDS011;25688;52.338;21.072;2024-03-06T12:45:31;18.05;;;7.45;;
39996;SDS011;25688;52.338;21.072;2024-03-06T12:47:57;11.93;;;6.53;;
39996;SDS011;25688;52.338;21.072;2024-03-06T12:50:24;12.40;;;7.45;;
39996;SDS011;25688;52.338;21.072;2024-03-06T12:52:51;14.48;;;6.75;;
39996;SDS011;25688;52.338;21.072;2024-03-06T12:55:27;11.27;;;6.30;;
39996;SDS011;25688;52.338;21.072;2024-03-06T12:57:58;10.70;;;6.30;;
39996;SDS011;25688;52.338;21.072;2024-03-06T13:02:50;11.93;;;6.38;;
39996;SDS011;25688;52.338;21.072;2024-03-06T13:05:16;13.02;;;6.97;;
39996;SDS011;25688;52.338;21.072;2024-03-06T13:10:29;14.43;;;6.70;;
39996;SDS011;25688;52.338;21.072;2024-03-06T13:12:56;14.75;;;7.40;;
39996;SDS011;25688;52.338;21.072;2024-03-06T13:15:24;13.85;;;7.68;;
39996;SDS011;25688;52.338;21.072;2024-03-06T13:17:50;13.13;;;6.55;;
39996;SDS011;25688;52.338;21.072;2024-03-06T13:20:16;17.60;;;7.85;;
39996;SDS011;25688;52.338;21.072;2024-03-06T13:22:52;15.15;;;7.18;;
39996;SDS011;25688;52.338;21.072;2024-03-06T13:25:18;13.98;;;7.40;;
39996;SDS011;25688;52.338;21.072;2024-03-06T13:27:44;14.15;;;7.55;;
39996;SDS011;25688;52.338;21.072;2024-03-06T13:30:10;15.75;;;7.07;;
39996;SDS011;25688;52.338;21.072;2024-03-06T13:32:37;15.70;;;7.20;;
39996;SDS011;25688;52.338;21.072;2024-03-06T13:35:03;14.45;;;7.10;;
39996;SDS011;25688;52.338;21.072;2024-03-06T13:37:31;17.10;;;8.50;;
39996;SDS011;25688;52.338;21.072;2024-03-06T13:40:07;14.00;;;7.60;;
39996;SDS011;25688;52.338;21.072;2024-03-06T13:42:36;16.13;;;8.02;;
39996;SDS011;25688;52.338;21.072;2024-03-06T13:45:17;14.52;;;7.63;;
39996;SDS011;25688;52.338;21.072;2024-03-06T13:47:43;13.68;;;7.50;;
39996;SDS011;25688;52.338;21.072;2024-03-06T13:50:10;15.77;;;8.10;;
39996;SDS011;25688;52.338;21.072;2024-03-06T13:52:43;19.40;;;8.40;;
39996;SDS011;25688;52.338;21.072;2024-03-06T13:55:15;18.25;;;8.82;;
39996;SDS011;25688;52.338;21.072;2024-03-06T14:03:31;18.17;;;8.50;;
39996;SDS011;25688;52.338;21.072;2024-03-06T14:06:09;15.48;;;8.15;;
39996;SDS011;25688;52.338;21.072;2024-03-06T14:08:35;17.65;;;9.10;;
39996;SDS011;25688;52.338;21.072;2024-03-06T14:11:03;18.80;;;8.55;;
39996;SDS011;25688;52.338;21.072;2024-03-06T14:13:32;17.13;;;8.65;;
39996;SDS011;25688;52.338;21.072;2024-03-06T14:15:57;19.25;;;9.65;;
39996;SDS011;25688;52.338;21.072;2024-03-06T14:18:25;20.85;;;9.38;;
39996;SDS011;25688;52.338;21.072;2024-03-06T14:20:51;18.15;;;8.80;;
39996;SDS011;25688;52.338;21.072;2024-03-06T14:23:25;17.33;;;9.57;;
39996;SDS011;25688;52.338;21.072;2024-03-06T14:26:00;16.25;;;8.70;;
39996;SDS011;25688;52.338;21.072;2024-03-06T14:28:39;18.42;;;9.30;;
39996;SDS011;25688;52.338;21.072;2024-03-06T14:31:50;19.67;;;9.45;;
39996;SDS011;25688;52.338;21.072;2024-03-06T14:34:16;17.15;;;9.80;;
39996;SDS011;25688;52.338;21.072;2024-03-06T14:36:42;17.40;;;8.63;;
39996;SDS011;25688;52.338;21.072;2024-03-06T14:49:57;19.45;;;9.15;;
39996;SDS011;25688;52.338;21.072;2024-03-06T14:52:38;22.38;;;11.75;;
39996;SDS011;25688;52.338;21.072;2024-03-06T15:08:27;16.05;;;8.48;;
39996;SDS011;25688;52.338;21.072;2024-03-06T15:11:42;18.17;;;9.35;;
39996;SDS011;25688;52.338;21.072;2024-03-06T15:14:08;17.70;;;8.75;;
39996;SDS011;25688;52.338;21.072;2024-03-06T15:17:04;15.88;;;8.70;;
39996;SDS011;25688;52.338;21.072;2024-03-06T15:20:16;17.98;;;8.60;;
39996;SDS011;25688;52.338;21.072;2024-03-06T15:22:45;21.92;;;10.02;;
39996;SDS011;25688;52.338;21.072;2024-03-06T15:25:11;16.58;;;8.75;;
39996;SDS011;25688;52.338;21.072;2024-03-06T15:27:38;17.88;;;8.77;;
39996;SDS011;25688;52.338;21.072;2024-03-06T15:30:05;18.85;;;9.25;;
39996;SDS011;25688;52.338;21.072;2024-03-06T15:32:35;24.63;;;11.38;;
39996;SDS011;25688;52.338;21.072;2024-03-06T15:35:01;23.20;;;10.27;;
39996;SDS011;25688;52.338;21.072;2024-03-06T15:37:30;19.95;;;10.60;;
39996;SDS011;25688;52.338;21.072;2024-03-06T15:39:57;19.50;;;9.95;;
39996;SDS011;25688;52.338;21.072;2024-03-06T15:42:25;17.45;;;10.00;;
39996;SDS011;25688;52.338;21.072;2024-03-06T15:44:51;18.15;;;8.88;;
39996;SDS011;25688;52.338;21.072;2024-03-06T15:47:18;19.45;;;10.02;;
39996;SDS011;25688;52.338;21.072;2024-03-06T15:49:44;19.25;;;9.60;;
39996;SDS011;25688;52.338;21.072;2024-03-06T15:52:11;21.98;;;10.35;;